Steward, Illinois
Current Conditions -  °F | °C
As of 2:35 PM on Saturday 25 Oct 2014 (Local Time) from KRPJ Reporting Station
Clear Clear  
Wind Chill: 72°   Ceiling: Unl
Heat Index: 72°   Visibility: 10mi
Dew Point: 31°   Wind: 18mph
Humidity: 22%   Direction: 290°WNW
Pressure: 29.96"   Gusts: NA
Location:  41.85°N, 89.02°W
Report Text: KRPJ 251935Z AUTO 29016KT 10SM CLR 22/M01 A2996 RMK AO2 T02201006
Loading
Personal Weather Stations






























Interactive Weather Map
Tropical Storm Tracking
New forecast layout! Learn more

10-Day Weather Forecast

Advertisements
Track Severe Weather on mobile